Time;durP1;ratioP1;P1;durP2;ratioP2;P2;SDS_P1;SDS_P2;PMS_P1;PMS_P2;Temp;Humidity;BMP_temperature;BMP_pressure;BME280_temperature;BME280_humidity;BME280_pressure;Samples;Min_cycle;Max_cycle;Signal;HPM_P1;HPM_P2
2022/09/28 00:00:15;;;;;;;23.05;4.45;;;15.80;99.90;;;15.15;100.00;100006.94;5074479;23;20012;-74
2022/09/28 00:02:16;;;;;;;18.13;3.30;;;15.80;99.90;;;15.08;100.00;100004.28;5074245;23;20005;-74
2022/09/28 00:04:17;;;;;;;22.55;4.18;;;15.80;99.90;;;15.08;100.00;99988.34;5073996;23;20006;-74
2022/09/28 00:06:23;;;;;;;20.77;4.30;;;15.80;99.90;;;15.08;100.00;99984.88;5074111;23;20076;-75
2022/09/28 00:08:24;;;;;;;18.48;4.97;;;15.80;99.90;;;15.02;100.00;99980.38;5072806;23;20006;-75
2022/09/28 00:10:24;;;;;;;21.13;3.80;;;15.70;99.90;;;14.96;100.00;99979.34;5071788;23;20010;-74
2022/09/28 00:12:26;;;;;;;21.25;3.45;;;15.70;99.90;;;15.05;100.00;99986.09;5072539;23;20033;-75
2022/09/28 00:14:27;;;;;;;9.48;3.20;;;15.70;99.90;;;15.04;100.00;99981.81;5072193;23;20010;-74
2022/09/28 00:16:32;;;;;;;14.82;3.03;;;15.70;99.90;;;15.00;100.00;99977.91;5096954;23;20446;-74
2022/09/28 00:18:34;;;;;;;10.02;2.50;;;15.70;99.90;;;15.01;100.00;99971.59;5074013;23;20461;-75
2022/09/28 00:20:36;;;;;;;12.82;2.83;;;15.70;99.90;;;15.06;100.00;99970.97;5072468;23;20013;-74
2022/09/28 00:22:38;;;;;;;11.68;2.53;;;15.70;99.90;;;15.02;100.00;99967.91;5072520;23;20032;-74
2022/09/28 00:24:38;;;;;;;11.55;2.50;;;15.70;99.90;;;15.02;100.00;99961.78;5073894;23;20009;-74
2022/09/28 00:26:53;;;;;;;10.32;2.53;;;15.70;99.90;;;15.11;100.00;99965.88;5073620;23;20084;-74
2022/09/28 00:28:57;;;;;;;15.73;3.25;;;15.70;99.90;;;15.04;100.00;99971.19;5073908;23;20005;-74
2022/09/28 00:30:59;;;;;;;10.45;2.70;;;15.70;99.90;;;15.05;100.00;99951.56;5073803;23;20010;-74
2022/09/28 00:33:00;;;;;;;13.07;2.30;;;15.70;99.90;;;15.12;100.00;99947.06;5073981;23;20010;-74
2022/09/28 00:35:00;;;;;;;10.02;2.08;;;15.80;99.90;;;15.11;100.00;99942.78;5077674;23;20029;-74
2022/09/28 00:37:04;;;;;;;12.07;1.77;;;15.80;99.90;;;15.01;100.00;99945.03;5098404;23;20056;-74
2022/09/28 00:39:07;;;;;;;;;;;15.80;99.90;;;15.01;100.00;99947.69;5098883;23;20040;-75
2022/09/28 00:41:10;;;;;;;10.20;2.03;;;15.70;99.90;;;14.94;100.00;99939.69;5097978;23;19967;-74
2022/09/28 00:43:19;;;;;;;8.18;1.73;;;15.70;99.90;;;15.08;100.00;99937.06;5098233;23;20009;-74
2022/09/28 00:45:24;;;;;;;5.63;1.75;;;15.70;99.90;;;15.01;100.00;99922.94;5072570;23;20057;-74
2022/09/28 00:47:50;;;;;;;7.20;1.92;;;15.70;99.90;;;14.98;100.00;99924.19;5098143;23;20009;-74
2022/09/28 00:50:19;;;;;;;5.22;1.52;;;15.70;99.90;;;15.00;100.00;99927.44;5098168;23;20010;-74
2022/09/28 00:52:44;;;;;;;9.63;2.17;;;15.70;99.90;;;14.96;100.00;99927.03;5075920;23;20009;-75
2022/09/28 00:54:46;;;;;;;6.10;1.92;;;15.60;99.90;;;14.94;100.00;99930.91;5098290;23;20057;-74
2022/09/28 00:56:48;;;;;;;8.73;2.20;;;15.70;99.90;;;15.00;100.00;99935.41;5072091;23;20009;-74
2022/09/28 00:58:52;;;;;;;9.68;1.75;;;15.70;99.90;;;15.03;100.00;99927.03;5098358;23;20449;-74
2022/09/28 01:00:56;;;;;;;6.32;1.35;;;15.70;99.90;;;15.04;100.00;99918.06;5070051;23;20119;-74
2022/09/28 01:02:58;;;;;;;7.25;1.33;;;15.70;99.90;;;15.07;100.00;99920.31;5072495;23;20427;-75
2022/09/28 01:05:00;;;;;;;7.07;2.38;;;15.70;99.90;;;15.04;100.00;99909.25;5099668;23;20059;-74
2022/09/28 01:07:02;;;;;;;6.03;1.30;;;15.70;99.90;;;14.95;100.00;99927.25;5074321;23;20513;-75
2022/09/28 01:09:09;;;;;;;9.07;1.73;;;15.70;99.90;;;15.04;100.00;99920.72;5073856;23;20320;-75
2022/09/28 01:11:10;;;;;;;6.15;1.50;;;15.70;99.90;;;14.93;100.00;99916.81;5073959;23;20540;-75
2022/09/28 01:13:13;;;;;;;7.40;1.15;;;15.60;99.90;;;14.88;100.00;99907.81;5100144;23;20399;-75
2022/09/28 01:15:14;;;;;;;6.05;1.67;;;15.60;99.90;;;14.92;100.00;99914.38;5074061;23;20006;-75
2022/09/28 01:17:32;;;;;;;6.57;1.30;;;15.60;99.90;;;14.95;100.00;99898.84;5099842;23;20008;-74
2022/09/28 01:20:25;;;;;;;6.30;1.42;;;15.70;99.90;;;15.04;100.00;99901.28;5099820;23;20315;-75
2022/09/28 01:23:12;;;;;;;5.43;1.38;;;15.70;99.90;;;15.10;100.00;99900.47;5020086;23;20064;-75
2022/09/28 01:25:28;;;;;;;6.50;0.90;;;15.70;99.90;;;15.12;100.00;99899.25;5099360;23;20013;-74
2022/09/28 01:27:53;;;;;;;6.72;2.08;;;15.80;99.90;;;15.08;100.00;99898.03;5099639;23;20005;-75
2022/09/28 01:30:22;;;;;;;8.00;1.42;;;15.80;99.90;;;15.01;100.00;99888.44;5073663;23;20041;-74
2022/09/28 01:32:42;;;;;;;5.00;1.08;;;15.70;99.90;;;15.01;100.00;99885.78;5077421;23;20005;-74
2022/09/28 01:34:55;;;;;;;5.45;1.17;;;15.70;99.90;;;15.02;100.00;99882.09;5099485;23;20006;-75
2022/09/28 01:36:59;;;;;;;7.65;1.17;;;15.70;99.90;;;15.02;100.00;99882.09;5074473;23;20343;-75
2022/09/28 01:39:17;;;;;;;7.10;1.33;;;15.70;99.90;;;15.02;100.00;99877.63;5049325;23;20003;-75
2022/09/28 01:41:20;;;;;;;6.07;2.10;;;15.70;99.90;;;15.05;100.00;99873.72;5073925;23;20012;-74
2022/09/28 01:43:30;;;;;;;8.15;1.50;;;15.70;99.90;;;15.06;100.00;99868.19;5099707;23;20001;-74
2022/09/28 01:45:49;;;;;;;4.13;1.20;;;15.70;99.90;;;15.07;100.00;99864.53;5049360;23;20014;-74
2022/09/28 01:47:54;;;;;;;4.90;1.20;;;15.70;99.90;;;15.07;100.00;99872.50;5074594;23;20005;-74
2022/09/28 01:50:04;;;;;;;5.07;1.00;;;15.70;99.90;;;14.98;100.00;99876.38;5073926;23;20062;-74
2022/09/28 01:52:35;;;;;;;6.82;1.90;;;15.70;99.90;;;15.01;100.00;99873.31;5074351;23;20006;-75
2022/09/28 01:54:43;;;;;;;7.57;1.13;;;15.70;99.90;;;15.04;100.00;99872.09;5075887;23;20073;-74
2022/09/28 01:56:51;;;;;;;7.47;1.60;;;15.70;99.90;;;15.02;100.00;99866.16;5099056;23;20102;-74
2022/09/28 01:59:14;;;;;;;7.90;1.63;;;15.70;99.90;;;15.05;100.00;99861.25;5074028;23;20037;-75
2022/09/28 02:01:53;;;;;;;10.73;1.45;;;15.80;99.90;;;15.05;100.00;99852.47;5074369;23;20013;-74
2022/09/28 02:04:23;;;;;;;8.18;1.40;;;15.80;99.90;;;15.04;100.00;99859.63;5073142;23;20122;-74
2022/09/28 02:06:35;;;;;;;6.65;1.58;;;15.70;99.90;;;15.03;100.00;99852.66;5049783;23;20006;-74
2022/09/28 02:09:02;;;;;;;6.63;1.48;;;15.70;99.90;;;15.03;100.00;99849.19;5099520;23;20013;-75
2022/09/28 02:11:23;;;;;;;6.07;1.38;;;15.70;99.90;;;15.04;100.00;99842.88;5098828;23;20056;-75
2022/09/28 02:13:33;;;;;;;8.95;1.63;;;15.70;99.90;;;14.99;100.00;99843.50;5072966;23;20013;-74
2022/09/28 02:16:24;;;;;;;7.63;1.35;;;15.70;99.90;;;14.99;100.00;99848.00;5074042;23;20009;-74
2022/09/28 02:18:24;;;;;;;5.63;1.48;;;15.70;99.90;;;14.90;100.00;99834.09;5076600;23;20442;-75
2022/09/28 02:20:28;;;;;;;6.07;1.08;;;15.70;99.90;;;14.99;100.00;99842.69;5099105;23;20012;-74
2022/09/28 02:22:56;;;;;;;5.70;1.45;;;15.70;99.90;;;15.05;100.00;99839.19;5073796;23;20012;-75
2022/09/28 02:25:34;;;;;;;8.00;1.50;;;15.70;99.90;;;15.07;100.00;99837.97;5073455;23;20013;-74
2022/09/28 02:27:55;;;;;;;5.30;0.88;;;15.70;99.90;;;15.02;100.00;99843.09;5077340;23;20029;-74
2022/09/28 02:29:56;;;;;;;4.03;1.40;;;15.70;99.90;;;14.98;100.00;99835.72;5076225;23;20010;-74
2022/09/28 02:31:57;;;;;;;5.65;1.20;;;15.70;99.90;;;14.98;100.00;99822.44;5048901;23;20006;-75
2022/09/28 02:33:58;;;;;;;2.55;0.70;;;15.70;99.90;;;14.91;100.00;99823.25;5073415;23;20375;-74
2022/09/28 02:36:00;;;;;;;3.25;0.85;;;15.60;99.90;;;14.88;100.00;99822.84;5099043;23;20013;-74
2022/09/28 02:38:01;;;;;;;4.28;1.13;;;15.60;99.90;;;14.92;100.00;99821.44;5048798;23;20003;-74
2022/09/28 02:40:10;;;;;;;3.63;0.68;;;15.60;99.90;;;14.80;100.00;99809.81;5098963;23;20080;-74
2022/09/28 02:42:28;;;;;;;6.45;0.98;;;15.50;99.90;;;14.83;100.00;99812.03;5074629;23;20463;-74
2022/09/28 02:45:12;;;;;;;6.38;0.77;;;15.50;99.90;;;14.81;100.00;99817.53;5074663;23;20504;-74
2022/09/28 02:47:35;;;;;;;5.80;1.55;;;15.50;99.90;;;14.73;100.00;99804.50;5030225;23;20020;-75
2022/09/28 02:50:19;;;;;;;4.57;0.93;;;15.40;99.90;;;14.66;100.00;99824.13;5074439;23;20005;-75
2022/09/28 02:52:41;;;;;;;2.35;0.80;;;15.40;99.90;;;14.69;100.00;99821.88;5070232;23;20382;-75
2022/09/28 02:54:56;;;;;;;4.03;0.75;;;15.40;99.90;;;14.87;100.00;99815.94;5099041;23;20060;-75
2022/09/28 02:57:21;;;;;;;6.53;0.95;;;15.50;99.90;;;14.95;100.00;99818.38;5098809;23;20008;-75
2022/09/28 02:59:29;;;;;;;;;;;15.60;99.90;;;15.02;100.00;99816.53;5075488;23;20006;-75
2022/09/28 03:01:37;;;;;;;5.40;1.20;;;15.60;99.90;;;14.98;100.00;99807.31;5073640;23;19909;-74
2022/09/28 03:03:55;;;;;;;4.22;0.65;;;15.60;99.90;;;14.93;100.00;99810.59;5098868;23;20121;-74
2022/09/28 03:06:10;;;;;;;4.97;1.02;;;15.60;99.90;;;15.01;100.00;99804.25;5073326;23;20006;-75
2022/09/28 03:08:49;;;;;;;2.88;0.50;;;15.70;99.90;;;14.90;100.00;99796.94;5074357;23;20385;-74
2022/09/28 03:10:59;;;;;;;1.80;0.52;;;15.70;99.90;;;15.00;100.00;99807.09;5098711;23;20037;-74
2022/09/28 03:13:02;;;;;;;4.55;0.70;;;15.70;99.90;;;15.03;100.00;99806.69;5048489;23;20073;-74
2022/09/28 03:15:12;;;;;;;1.92;0.45;;;15.70;99.90;;;15.09;100.00;99808.53;5097347;23;20009;-74
2022/09/28 03:17:13;;;;;;;3.25;1.40;;;15.70;99.90;;;15.09;100.00;99808.53;5073279;23;20001;-75
2022/09/28 03:19:20;;;;;;;3.10;0.45;;;15.80;99.90;;;15.04;100.00;99800.38;5073145;23;20005;-75
2022/09/28 03:21:21;;;;;;;5.15;0.80;;;15.80;99.90;;;15.08;100.00;99799.75;5074047;23;20009;-75
2022/09/28 03:23:21;;;;;;;3.03;0.70;;;15.80;99.90;;;15.02;100.00;99803.25;5072893;23;20002;-75
2022/09/28 03:25:22;;;;;;;1.63;0.50;;;15.80;99.90;;;15.02;100.00;99802.44;5098307;23;20005;-74
2022/09/28 03:27:23;;;;;;;4.03;0.70;;;15.80;99.90;;;15.05;100.00;99805.50;5098575;23;20007;-74
2022/09/28 03:29:24;;;;;;;4.97;1.05;;;15.70;99.90;;;15.03;100.00;99810.16;5098587;23;20009;-74
2022/09/28 03:31:25;;;;;;;5.78;0.80;;;15.80;99.90;;;15.03;100.00;99796.88;5098765;23;20002;-74
2022/09/28 03:33:26;;;;;;;6.13;0.60;;;15.80;99.90;;;15.05;100.00;99802.84;5048386;23;20058;-75
2022/09/28 03:35:26;;;;;;;5.03;0.77;;;15.80;99.90;;;15.04;100.00;99798.53;5098343;23;20020;-75
2022/09/28 03:37:28;;;;;;;6.47;0.65;;;15.80;99.90;;;15.11;100.00;99804.66;5048693;23;20006;-74
2022/09/28 03:39:29;;;;;;;1.75;0.70;;;15.80;99.90;;;15.11;100.00;99802.00;5097231;23;20009;-74
2022/09/28 03:41:30;;;;;;;5.15;1.00;;;15.80;99.90;;;15.09;100.00;99800.56;5098212;23;20009;-75
2022/09/28 03:43:31;;;;;;;3.05;0.57;;;15.80;99.90;;;15.15;100.00;99813.00;5098599;23;20017;-74
2022/09/28 03:45:32;;;;;;;3.13;1.08;;;15.80;99.90;;;15.12;100.00;99808.94;5072870;23;20062;-74
2022/09/28 03:47:33;;;;;;;4.13;0.70;;;15.80;99.90;;;15.12;100.00;99803.63;5098573;23;20005;-74
2022/09/28 03:49:34;;;;;;;4.55;1.25;;;15.80;99.90;;;15.05;100.00;99805.50;5072437;23;20032;-74
2022/09/28 03:51:35;;;;;;;7.78;0.82;;;15.80;99.90;;;14.93;100.00;99789.34;5072716;23;20002;-74
2022/09/28 03:53:36;;;;;;;4.15;0.65;;;15.80;99.90;;;14.98;100.00;99804.69;5098658;23;20036;-74
2022/09/28 03:55:37;;;;;;;7.00;1.33;;;15.70;99.90;;;14.96;100.00;99815.50;5048009;23;20007;-74
2022/09/28 03:57:38;;;;;;;3.30;0.55;;;15.70;99.90;;;14.83;100.00;99812.03;5098432;23;20081;-74
2022/09/28 03:59:38;;;;;;;5.97;0.90;;;15.60;99.90;;;14.87;100.00;99813.28;5098705;23;20006;-74
2022/09/28 04:01:39;;;;;;;4.03;0.70;;;15.60;99.90;;;14.88;100.00;99813.06;5098742;23;20013;-74
2022/09/28 04:03:41;;;;;;;4.85;0.80;;;15.60;99.90;;;14.84;100.00;99819.00;5098460;23;20036;-74
2022/09/28 04:05:52;;;;;;;4.13;1.10;;;15.60;99.90;;;14.77;100.00;99850.03;5098330;23;20005;-75
2022/09/28 04:07:56;;;;;;;4.45;0.85;;;15.50;99.90;;;14.75;100.00;99854.75;5098689;23;20010;-75
2022/09/28 04:09:57;;;;;;;;;;;15.50;99.90;;;14.50;100.00;99856.34;5098830;23;20005;-74
2022/09/28 04:11:58;;;;;;;1.13;0.22;;;15.40;99.90;;;14.25;100.00;99867.50;5072318;23;19911;-74
2022/09/28 04:14:00;;;;;;;0.22;0.17;;;15.20;99.90;;;13.99;100.00;99882.53;5098398;23;20342;-75
2022/09/28 04:16:01;;;;;;;1.08;0.25;;;15.00;99.90;;;13.79;100.00;99875.34;5072588;23;20080;-75
2022/09/28 04:18:02;;;;;;;1.48;0.38;;;14.80;99.90;;;13.70;100.00;99886.28;5072687;23;20006;-75
2022/09/28 04:20:03;;;;;;;0.88;0.10;;;14.60;99.90;;;13.48;100.00;99884.72;5098429;23;20086;-75
2022/09/28 04:22:04;;;;;;;2.05;0.08;;;14.50;99.90;;;13.42;100.00;99893.47;5098371;23;20001;-75
2022/09/28 04:24:05;;;;;;;0.17;0.10;;;14.30;99.90;;;13.38;100.00;99895.69;5098662;23;20012;-74
2022/09/28 04:26:18;;;;;;;0.20;0.00;;;14.20;99.90;;;13.20;100.00;99880.28;5098028;23;20040;-75
2022/09/28 04:30:39;;;;;;;0.30;0.00;;;14.10;99.90;;;13.22;100.00;99896.00;5098211;23;20041;-75
2022/09/28 04:32:40;;;;;;;0.10;0.03;;;14.00;99.90;;;13.17;100.00;99901.84;5072482;23;20435;-75
2022/09/28 04:34:41;;;;;;;0.10;0.00;;;14.00;99.90;;;13.14;100.00;99896.16;5098249;23;20033;-75
2022/09/28 04:36:44;;;;;;;1.23;0.10;;;13.90;99.90;;;13.13;100.00;99895.34;5072853;23;20013;-75
2022/09/28 04:38:45;;;;;;;0.57;0.13;;;13.90;99.90;;;13.12;100.00;99898.16;5049771;23;20367;-75
2022/09/28 04:40:48;;;;;;;0.25;0.25;;;13.90;99.90;;;13.06;100.00;99905.00;5098191;23;20006;-75
2022/09/28 04:42:56;;;;;;;0.10;0.00;;;13.90;99.90;;;13.05;100.00;99903.38;5074180;23;20006;-75
2022/09/28 04:44:57;;;;;;;1.77;0.10;;;13.90;99.90;;;13.09;100.00;99907.31;5100090;23;20010;-75
2022/09/28 04:46:58;;;;;;;0.80;0.10;;;13.80;99.90;;;13.10;100.00;99910.78;5074078;23;20041;-75
2022/09/28 04:48:59;;;;;;;0.05;0.00;;;13.80;99.90;;;12.98;100.00;99910.47;5099954;23;20006;-75
2022/09/28 04:51:00;;;;;;;0.55;0.00;;;13.80;99.90;;;12.84;100.00;99890.19;5099933;23;20065;-75
2022/09/28 04:53:01;;;;;;;0.57;0.57;;;13.70;99.90;;;12.91;100.00;99903.47;5074006;23;20006;-75
2022/09/28 04:55:02;;;;;;;0.08;0.03;;;13.70;99.90;;;12.89;100.00;99903.66;5049181;23;20034;-75
2022/09/28 04:57:04;;;;;;;0.08;0.00;;;13.70;99.90;;;12.94;100.00;99906.53;5049540;23;20466;-75
2022/09/28 04:59:05;;;;;;;0.50;0.10;;;13.70;99.90;;;12.90;100.00;99905.31;5074300;23;20002;-75
2022/09/28 05:01:12;;;;;;;0.40;0.10;;;13.70;99.90;;;12.90;100.00;99909.78;5099846;23;20005;-75
2022/09/28 05:03:13;;;;;;;0.20;0.05;;;13.70;99.90;;;12.84;100.00;99903.41;5099824;23;20013;-75
2022/09/28 05:05:14;;;;;;;0.68;0.10;;;13.70;99.90;;;12.86;100.00;99909.34;5074115;23;20006;-75
2022/09/28 05:07:15;;;;;;;0.52;0.10;;;13.70;99.90;;;12.85;100.00;99910.34;5098489;23;20012;-75
2022/09/28 05:09:16;;;;;;;0.95;0.10;;;13.60;99.90;;;12.80;100.00;99896.88;5099849;23;20040;-75
2022/09/28 05:11:18;;;;;;;1.08;0.20;;;13.60;99.90;;;12.78;100.00;99906.84;5073449;23;20005;-75
2022/09/28 05:13:19;;;;;;;1.65;0.20;;;13.60;99.90;;;12.82;100.00;99897.47;5098552;23;20005;-74
2022/09/28 05:15:20;;;;;;;2.05;0.20;;;13.60;99.90;;;12.76;100.00;99882.38;5073987;23;20009;-75
2022/09/28 05:17:22;;;;;;;0.00;0.00;;;13.60;99.90;;;12.80;100.00;99894.22;5099675;23;20002;-75
2022/09/28 05:19:23;;;;;;;0.98;0.10;;;13.60;99.90;;;12.74;100.00;99894.97;5099675;23;20085;-75
2022/09/28 05:21:25;;;;;;;1.73;0.20;;;13.50;99.90;;;12.76;100.00;99901.72;5073839;23;20006;-75
2022/09/28 05:23:26;;;;;;;1.20;0.10;;;13.50;99.90;;;12.76;100.00;99899.06;5099680;23;20080;-74
2022/09/28 05:25:27;;;;;;;0.17;0.10;;;13.50;99.90;;;12.77;100.00;99902.53;5073361;23;20009;-75
2022/09/28 05:27:28;;;;;;;0.35;0.10;;;13.50;99.90;;;12.75;100.00;99907.22;5099658;23;20012;-75
2022/09/28 05:29:29;;;;;;;0.25;0.10;;;13.50;99.90;;;12.75;100.00;99908.00;5099710;23;20068;-74
2022/09/28 05:31:31;;;;;;;0.30;0.13;;;13.50;99.90;;;12.63;100.00;99883.06;5099777;23;19997;-74
2022/09/28 05:33:32;;;;;;;1.58;0.10;;;13.50;99.90;;;12.73;100.00;99901.28;5074040;23;20448;-74
2022/09/28 05:35:33;;;;;;;0.30;0.20;;;13.50;99.90;;;12.71;100.00;99906.78;5099294;23;20010;-74
2022/09/28 05:37:35;;;;;;;1.65;0.55;;;13.50;99.90;;;12.72;100.00;99907.59;5099556;23;20005;-74
2022/09/28 05:39:36;;;;;;;0.28;0.20;;;13.50;99.90;;;12.75;100.00;99912.50;5099781;23;20005;-75
2022/09/28 05:41:37;;;;;;;0.45;0.20;;;13.50;99.90;;;12.70;100.00;99899.81;5099149;23;20033;-75
2022/09/28 05:43:37;;;;;;;0.90;0.40;;;13.50;99.90;;;12.67;100.00;99891.44;5073652;23;20009;-74
2022/09/28 05:45:38;;;;;;;0.38;0.20;;;13.50;99.90;;;12.71;100.00;99900.66;5099537;23;20006;-75
2022/09/28 05:47:42;;;;;;;0.30;0.22;;;13.50;99.90;;;12.70;100.00;99899.00;5049301;23;20073;-75
2022/09/28 05:49:43;;;;;;;0.63;0.30;;;13.50;99.90;;;12.69;100.00;99908.75;5073227;23;20101;-75
2022/09/28 05:51:43;;;;;;;0.38;0.28;;;13.50;99.90;;;12.69;100.00;99915.91;5073577;23;20335;-74
2022/09/28 05:53:44;;;;;;;0.40;0.10;;;13.50;99.90;;;12.68;100.00;99922.19;5073643;23;20006;-74
2022/09/28 05:55:46;;;;;;;0.45;0.20;;;13.40;99.90;;;12.60;100.00;99923.13;5097746;23;20001;-74
2022/09/28 05:57:46;;;;;;;0.10;0.10;;;13.40;99.90;;;12.54;100.00;99915.97;5073554;23;20089;-75
2022/09/28 05:59:47;;;;;;;0.10;0.10;;;13.40;99.90;;;12.51;100.00;99916.34;5099479;23;20010;-74
2022/09/28 06:01:48;;;;;;;1.45;0.20;;;13.30;99.90;;;12.52;100.00;99927.72;5073005;23;20017;-75
2022/09/28 06:03:49;;;;;;;0.85;0.20;;;13.30;99.90;;;12.45;100.00;99921.56;5073620;23;20009;-75
2022/09/28 06:05:50;;;;;;;1.27;0.20;;;13.30;99.90;;;12.43;100.00;99926.22;5097927;23;20013;-75
2022/09/28 06:07:51;;;;;;;0.22;0.13;;;13.20;99.90;;;12.42;100.00;99938.63;5099391;23;20029;-76
2022/09/28 06:09:52;;;;;;;0.43;0.20;;;13.20;99.90;;;12.33;100.00;99937.13;5073527;23;20009;-75
2022/09/28 06:11:53;;;;;;;1.42;0.50;;;13.20;99.90;;;12.40;100.00;99939.81;5049182;23;20008;-75
2022/09/28 06:13:54;;;;;;;1.65;0.20;;;13.20;99.90;;;12.34;100.00;99940.56;5073336;23;20010;-75
2022/09/28 06:15:55;;;;;;;2.67;0.28;;;13.10;99.90;;;12.31;100.00;99940.94;5093428;23;20426;-75
2022/09/28 06:18:06;;;;;;;1.40;0.30;;;13.10;99.90;;;12.29;100.00;99949.06;5099242;23;20006;-75
2022/09/28 06:20:07;;;;;;;1.27;0.20;;;13.10;99.90;;;12.24;100.00;99948.81;5099483;23;20005;-75
2022/09/28 06:22:08;;;;;;;0.70;0.20;;;13.10;99.90;;;12.24;100.00;99940.06;5073209;23;20141;-75
2022/09/28 06:24:09;;;;;;;0.60;0.20;;;13.00;99.90;;;12.27;100.00;99945.78;5048947;23;20018;-76
2022/09/28 06:26:10;;;;;;;0.60;0.22;;;13.00;99.90;;;12.23;100.00;99935.75;5072482;23;20534;-75
2022/09/28 06:28:13;;;;;;;0.38;0.17;;;13.00;99.90;;;12.26;100.00;99946.78;5097805;23;20006;-75
2022/09/28 06:30:14;;;;;;;1.17;0.30;;;13.00;99.90;;;12.23;100.00;99946.34;5073105;23;20012;-76
2022/09/28 06:32:15;;;;;;;0.70;0.30;;;13.00;99.90;;;12.27;100.00;99956.38;5099413;23;20016;-75
2022/09/28 06:34:16;;;;;;;1.00;0.30;;;13.00;99.90;;;12.29;100.00;99953.53;5099376;23;20430;-75
2022/09/28 06:36:19;;;;;;;0.40;0.20;;;13.00;99.90;;;12.27;100.00;99944.97;5072828;23;20332;-75
2022/09/28 06:38:20;;;;;;;1.02;0.30;;;13.00;99.90;;;12.27;100.00;99950.25;5097550;23;20073;-76
2022/09/28 06:40:22;;;;;;;0.50;0.15;;;13.00;99.90;;;12.31;100.00;99954.16;5099080;23;20005;-75
2022/09/28 06:42:23;;;;;;;1.35;0.20;;;13.10;99.90;;;12.31;100.00;99959.44;5073223;23;20033;-75
2022/09/28 06:44:24;;;;;;;2.15;0.47;;;13.00;99.90;;;12.29;100.00;99953.53;5099067;23;20319;-75
2022/09/28 06:46:25;;;;;;;0.60;0.38;;;13.00;99.90;;;12.28;100.00;99958.00;5099178;23;20083;-75
2022/09/28 06:48:26;;;;;;;0.88;0.50;;;13.10;99.90;;;12.32;100.00;99966.38;5073162;23;20427;-75
2022/09/28 06:50:33;;;;;;;1.35;0.50;;;13.10;99.90;;;12.29;100.00;99959.63;5073017;23;20016;-75
2022/09/28 06:52:34;;;;;;;1.73;0.80;;;13.10;99.90;;;12.33;100.00;99962.72;5049065;23;20009;-75
2022/09/28 06:54:35;;;;;;;0.82;0.47;;;13.10;99.90;;;12.27;100.00;99955.53;5097352;23;20338;-75
2022/09/28 06:56:36;;;;;;;2.67;0.63;;;13.10;99.90;;;12.26;100.00;99962.66;5098607;23;20013;-75
2022/09/28 06:58:37;;;;;;;2.83;1.27;;;13.10;99.90;;;12.33;100.00;99973.31;5099060;23;20001;-76
2022/09/28 07:00:39;;;;;;;1.33;0.43;;;13.10;99.90;;;12.24;100.00;99953.28;5098814;23;20005;-75
2022/09/28 07:02:40;;;;;;;2.92;0.68;;;13.10;99.90;;;12.29;100.00;99979.97;5098354;23;20038;-75
2022/09/28 07:04:42;;;;;;;1.42;0.52;;;13.10;99.90;;;12.29;100.00;99969.38;5073007;23;20470;-76
2022/09/28 07:06:46;;;;;;;2.75;0.57;;;13.10;99.90;;;12.36;100.00;99971.13;5073233;23;20010;-75
2022/09/28 07:08:47;;;;;;;1.98;0.60;;;13.10;99.90;;;12.32;100.00;99966.38;5098737;23;20009;-75
2022/09/28 07:11:00;;;;;;;1.50;0.40;;;13.20;99.90;;;12.42;100.00;99975.66;5072063;23;20017;-75
2022/09/28 07:13:03;;;;;;;1.13;0.40;;;13.20;99.90;;;12.42;100.00;99962.44;5099196;23;20029;-75
2022/09/28 07:15:06;;;;;;;1.15;0.40;;;13.20;99.90;;;12.44;100.00;99989.50;5073128;23;20010;-75
2022/09/28 07:17:07;;;;;;;2.17;0.45;;;13.30;99.90;;;12.46;100.00;99976.91;5098796;23;20001;-75
2022/09/28 07:19:08;;;;;;;1.35;0.47;;;13.30;99.90;;;12.53;100.00;99979.63;5073286;23;20424;-75
2022/09/28 07:21:09;;;;;;;2.60;0.43;;;13.30;99.90;;;12.64;100.00;99984.44;5098673;23;20037;-75
2022/09/28 07:23:10;;;;;;;2.90;0.70;;;13.30;99.90;;;12.70;100.00;99970.44;5098079;23;20025;-76
2022/09/28 07:25:13;;;;;;;2.63;0.60;;;13.40;99.90;;;12.80;100.00;99975.44;5098105;23;20347;-76
2022/09/28 07:27:14;;;;;;;1.48;0.75;;;13.50;99.90;;;12.85;100.00;99976.50;5098645;23;20013;-76
2022/09/28 07:29:15;;;;;;;1.35;0.40;;;13.60;99.90;;;12.84;100.00;99980.19;5098643;23;20010;-76
2022/09/28 07:31:16;;;;;;;2.10;0.30;;;13.60;99.90;;;12.68;100.00;99975.13;5072679;23;20462;-75
2022/09/28 07:33:17;;;;;;;2.80;0.50;;;13.60;99.90;;;12.86;100.00;99982.63;5098584;23;20002;-76
2022/09/28 07:35:18;;;;;;;2.70;0.45;;;13.60;99.90;;;12.88;100.00;99985.88;5048192;23;20014;-76
2022/09/28 07:37:19;;;;;;;2.83;0.50;;;13.70;99.90;;;12.93;100.00;99983.53;5098620;23;20052;-76
2022/09/28 07:39:20;;;;;;;2.92;0.40;;;13.70;99.90;;;12.80;100.00;99988.66;5098634;23;20006;-76
2022/09/28 07:41:31;;;;;;;2.47;0.40;;;13.70;99.90;;;12.74;100.00;99979.66;5072252;23;20009;-76
2022/09/28 07:43:32;;;;;;;1.50;0.50;;;13.70;99.90;;;12.92;100.00;99984.50;5074748;23;20005;-76
2022/09/28 07:45:34;;;;;;;1.85;0.50;;;13.70;99.90;;;13.05;100.00;99980.16;5072841;23;20493;-76
2022/09/28 07:47:35;;;;;;;1.15;0.30;;;13.80;99.90;;;13.18;100.00;99993.53;5098660;23;20021;-76
2022/09/28 07:49:36;;;;;;;2.03;0.52;;;13.80;99.90;;;13.11;100.00;99990.00;5072788;23;20002;-76
2022/09/28 07:51:37;;;;;;;1.25;0.20;;;13.90;99.90;;;13.07;100.00;100001.16;5072669;23;20002;-76
2022/09/28 07:53:38;;;;;;;1.60;0.60;;;13.90;99.90;;;13.17;100.00;99997.19;5072372;23;20008;-76
2022/09/28 07:55:38;;;;;;;3.55;0.50;;;13.90;99.90;;;13.20;100.00;99988.06;5096731;23;20454;-76
2022/09/28 07:57:40;;;;;;;0.65;0.28;;;13.90;99.90;;;13.13;100.00;99988.00;5098696;23;20367;-76
2022/09/28 07:59:42;;;;;;;1.85;0.43;;;14.00;99.90;;;13.22;100.00;99994.81;5048019;23;20042;-76
2022/09/28 08:01:43;;;;;;;2.00;0.75;;;14.00;99.90;;;13.32;100.00;99989.97;5098859;23;20009;-76
2022/09/28 08:03:46;;;;;;;3.17;0.30;;;14.10;99.90;;;13.27;100.00;99992.41;5098606;23;20032;-76
2022/09/28 08:05:47;;;;;;;3.40;0.40;;;14.10;99.90;;;13.36;100.00;99997.53;5072342;23;20010;-76
2022/09/28 08:07:48;;;;;;;1.05;0.40;;;14.20;99.90;;;13.45;100.00;99996.41;5098605;23;20013;-76
2022/09/28 08:09:49;;;;;;;2.17;0.40;;;14.20;99.90;;;13.60;100.00;100007.72;5097981;23;20316;-76
2022/09/28 08:11:50;;;;;;;1.27;0.57;;;14.20;99.90;;;13.58;100.00;100009.75;5072293;23;20013;-76
2022/09/28 08:13:55;;;;;;;2.17;0.60;;;14.20;99.90;;;13.37;100.00;100004.50;5098370;23;20005;-76
2022/09/28 08:16:00;;;;;;;1.95;0.60;;;14.20;99.90;;;13.22;100.00;100004.59;5073402;23;20414;-76
2022/09/28 08:18:05;;;;;;;1.88;0.43;;;14.20;99.90;;;13.00;100.00;100006.38;5072552;23;20085;-76
2022/09/28 08:22:26;;;;;;;3.67;0.68;;;14.00;99.90;;;13.22;100.00;100000.09;5076277;23;20054;-76
2022/09/28 08:24:29;;;;;;;1.05;0.32;;;14.00;99.90;;;13.44;100.00;100022.06;5098347;23;20006;-76
2022/09/28 08:26:30;;;;;;;1.93;0.57;;;14.10;99.90;;;13.59;100.00;100011.41;5072489;23;20014;-76
2022/09/28 08:28:31;;;;;;;2.00;0.47;;;14.30;99.90;;;13.57;100.00;100013.41;5098505;23;20338;-76
2022/09/28 08:30:32;;;;;;;3.17;0.90;;;14.40;99.90;;;13.76;100.00;100012.72;5098273;23;20381;-76
2022/09/28 08:32:34;;;;;;;2.30;0.40;;;14.50;99.90;;;13.80;100.00;100008.66;5072699;23;20060;-76
2022/09/28 08:34:37;;;;;;;1.65;0.52;;;14.50;99.90;;;13.91;100.00;100017.91;5048220;23;20010;-76
2022/09/28 08:36:38;;;;;;;2.55;0.40;;;14.60;99.90;;;13.81;100.00;100016.44;5072008;23;20021;-76
2022/09/28 08:38:39;;;;;;;2.25;0.30;;;14.60;99.90;;;14.09;100.00;100024.38;5072362;23;20006;-76
2022/09/28 08:41:10;;;;;;;3.50;0.98;;;14.70;99.90;;;14.06;100.00;100016.78;5073522;23;20431;-76
2022/09/28 08:43:40;;;;;;;2.08;0.50;;;14.80;99.90;;;13.93;100.00;100008.75;5072712;23;20427;-76
2022/09/28 08:45:41;;;;;;;0.80;0.32;;;14.80;99.90;;;13.64;100.00;100011.63;5072442;23;20006;-74
2022/09/28 08:50:16;;;;;;;1.98;0.93;;;14.60;99.90;;;13.72;100.00;100022.06;5073609;23;20068;-76